Time;durP1;ratioP1;P1;durP2;ratioP2;P2;SDS_P1;SDS_P2;PMS_P1;PMS_P2;Temp;Humidity;BMP_temperature;BMP_pressure;BME280_temperature;BME280_humidity;BME280_pressure;Samples;Min_cycle;Max_cycle;Signal;HPM_P1;HPM_P2
2022/11/04 00:03:17;;;;;;;15.00;9.55;;;;;;;;;;12764222;23;20003;-75
2022/11/04 00:08:23;;;;;;;24.45;10.73;;;;;;;;;;12811511;23;20028;-79
2022/11/04 00:13:24;;;;;;;23.17;9.88;;;;;;;;;;12811197;23;20001;-75
2022/11/04 00:18:24;;;;;;;29.13;11.50;;;;;;;;;;12764355;23;20389;-77
2022/11/04 00:28:43;;;;;;;18.33;10.60;;;;;;;;;;12811321;23;20001;-73
2022/11/04 00:33:44;;;;;;;25.27;11.30;;;;;;;;;;12810952;23;20030;-75
2022/11/04 00:38:44;;;;;;;24.88;11.30;;;;;;;;;;12764282;23;20149;-76
2022/11/04 00:43:44;;;;;;;19.45;10.88;;;;;;;;;;12810567;23;20027;-74
2022/11/04 00:48:45;;;;;;;22.63;10.63;;;;;;;;;;12780791;23;20024;-79
2022/11/04 00:53:45;;;;;;;20.83;10.43;;;;;;;;;;12825768;23;19992;-79
2022/11/04 00:58:45;;;;;;;29.65;11.35;;;;;;;;;;12825831;23;19988;-75
2022/11/04 01:03:50;;;;;;;23.50;9.90;;;;;;;;;;12825032;23;19989;-74
2022/11/04 01:09:01;;;;;;;23.48;9.98;;;;;;;;;;12872514;23;20047;-76
2022/11/04 01:14:01;;;;;;;21.27;9.75;;;;;;;;;;12824917;23;20000;-73
2022/11/04 01:19:02;;;;;;;29.92;12.07;;;;;;;;;;12825364;23;20024;-74
2022/11/04 01:24:03;;;;;;;21.73;10.38;;;;;;;;;;12839686;23;20103;-82
2022/11/04 01:29:03;;;;;;;24.75;11.27;;;;;;;;;;12836560;23;20001;-75
2022/11/04 01:34:03;;;;;;;25.33;11.57;;;;;;;;;;12879656;23;19993;-81
2022/11/04 01:39:04;;;;;;;21.10;10.47;;;;;;;;;;12830097;23;20007;-75
2022/11/04 01:44:23;;;;;;;23.83;11.40;;;;;;;;;;12824787;23;20227;-75
2022/11/04 01:49:32;;;;;;;21.63;11.77;;;;;;;;;;12824314;23;20330;-75
2022/11/04 01:54:33;;;;;;;24.98;10.63;;;;;;;;;;12824334;23;20027;-78
2022/11/04 01:59:35;;;;;;;26.80;12.32;;;;;;;;;;12824608;23;20003;-75
2022/11/04 02:04:36;;;;;;;28.70;11.18;;;;;;;;;;12824698;23;20400;-75
2022/11/04 02:09:38;;;;;;;23.52;12.43;;;;;;;;;;12824107;23;20055;-75
2022/11/04 02:14:39;;;;;;;25.42;12.40;;;;;;;;;;12823749;23;19988;-78
2022/11/04 02:19:47;;;;;;;30.73;13.25;;;;;;;;;;12827465;23;20467;-75
2022/11/04 02:24:57;;;;;;;31.35;13.63;;;;;;;;;;12829042;23;20004;-75
2022/11/04 02:30:16;;;;;;;27.58;12.75;;;;;;;;;;12828592;23;20512;-81
2022/11/04 02:35:37;;;;;;;27.60;13.52;;;;;;;;;;12828478;23;20012;-79
2022/11/04 02:40:37;;;;;;;26.50;12.45;;;;;;;;;;12826819;23;19999;-75
2022/11/04 02:45:46;;;;;;;35.33;13.05;;;;;;;;;;12864321;23;20027;-78
2022/11/04 02:50:50;;;;;;;27.42;12.68;;;;;;;;;;12766001;23;20004;-80
2022/11/04 02:55:53;;;;;;;30.17;13.32;;;;;;;;;;12765973;23;19993;-74
2022/11/04 03:00:56;;;;;;;42.38;15.88;;;;;;;;;;12813989;23;20108;-80
2022/11/04 03:06:00;;;;;;;27.17;14.25;;;;;;;;;;12766204;23;20001;-80
2022/11/04 03:11:02;;;;;;;32.05;14.57;;;;;;;;;;12765674;23;19997;-79
2022/11/04 03:16:08;;;;;;;31.98;15.10;;;;;;;;;;12765088;23;19990;-76
2022/11/04 03:21:10;;;;;;;26.42;12.60;;;;;;;;;;12792291;23;19993;-75
2022/11/04 03:26:13;;;;;;;27.52;14.00;;;;;;;;;;12811759;23;20357;-78
2022/11/04 03:31:19;;;;;;;32.00;13.15;;;;;;;;;;12764903;23;19997;-75
2022/11/04 03:36:21;;;;;;;36.80;14.73;;;;;;;;;;12765039;23;19993;-83
2022/11/04 03:41:34;;;;;;;31.73;14.48;;;;;;;;;;12785534;23;20000;-76
2022/11/04 03:46:34;;;;;;;23.67;13.40;;;;;;;;;;12764573;23;20343;-75
2022/11/04 03:51:35;;;;;;;33.53;14.55;;;;;;;;;;12798745;23;20080;-79
2022/11/04 03:56:42;;;;;;;27.58;14.02;;;;;;;;;;12775189;23;20067;-73
2022/11/04 04:01:53;;;;;;;31.88;14.27;;;;;;;;;;12816520;23;20072;-74
2022/11/04 04:06:58;;;;;;;28.25;14.50;;;;;;;;;;12765401;23;20080;-76
2022/11/04 04:12:05;;;;;;;30.63;15.32;;;;;;;;;;12764106;23;20008;-75
2022/11/04 04:17:08;;;;;;;36.22;15.15;;;;;;;;;;12777383;23;19993;-75
2022/11/04 04:22:12;;;;;;;37.88;14.57;;;;;;;;;;12810970;23;20027;-79
2022/11/04 04:27:32;;;;;;;40.30;15.82;;;;;;;;;;12763433;23;19989;-74
2022/11/04 04:32:41;;;;;;;29.40;14.13;;;;;;;;;;12788288;23;20365;-76
2022/11/04 04:37:42;;;;;;;35.97;15.70;;;;;;;;;;12812711;23;19993;-75
2022/11/04 04:48:02;;;;;;;33.90;16.30;;;;;;;;;;12836653;23;20016;-77
2022/11/04 04:53:05;;;;;;;38.38;16.23;;;;;;;;;;12829689;23;20004;-74
2022/11/04 04:58:05;;;;;;;38.25;14.52;;;;;;;;;;12824506;23;20420;-79
2022/11/04 05:03:05;;;;;;;34.63;15.10;;;;;;;;;;12872125;23;20398;-82
2022/11/04 05:08:07;;;;;;;34.75;15.50;;;;;;;;;;12823130;23;19999;-76
2022/11/04 05:13:26;;;;;;;33.13;15.18;;;;;;;;;;12825425;23;20011;-77
2022/11/04 05:18:26;;;;;;;37.08;17.25;;;;;;;;;;12822019;23;20333;-75
2022/11/04 05:23:26;;;;;;;34.58;16.58;;;;;;;;;;12871641;23;19993;-77
2022/11/04 05:28:26;;;;;;;37.08;16.67;;;;;;;;;;12824088;23;20035;-78
2022/11/04 05:33:27;;;;;;;32.92;16.42;;;;;;;;;;12823214;23;20002;-79
2022/11/04 05:38:27;;;;;;;37.47;16.65;;;;;;;;;;12824029;23;20000;-76
2022/11/04 05:43:27;;;;;;;34.78;17.00;;;;;;;;;;12823456;23;19996;-75
2022/11/04 05:48:28;;;;;;;35.38;18.65;;;;;;;;;;12823959;23;20016;-75
2022/11/04 05:53:28;;;;;;;45.70;18.63;;;;;;;;;;12870781;23;20037;-75
2022/11/04 05:58:31;;;;;;;42.08;19.83;;;;;;;;;;12868159;23;20451;-76
2022/11/04 06:03:32;;;;;;;37.13;19.58;;;;;;;;;;12823217;23;19992;-76
2022/11/04 06:08:33;;;;;;;37.83;19.73;;;;;;;;;;12872869;23;20026;-76
2022/11/04 06:13:33;;;;;;;41.30;19.40;;;;;;;;;;12848120;23;20322;-75
2022/11/04 06:18:33;;;;;;;59.80;21.07;;;;;;;;;;12888471;23;19985;-74
2022/11/04 06:23:34;;;;;;;42.90;20.70;;;;;;;;;;12844049;23;20279;-78
2022/11/04 06:28:34;;;;;;;50.65;21.35;;;;;;;;;;12830588;23;20000;-75
2022/11/04 06:33:35;;;;;;;45.47;19.90;;;;;;;;;;12823135;23;20095;-74
2022/11/04 06:38:37;;;;;;;40.28;19.20;;;;;;;;;;12823401;23;20341;-79
2022/11/04 06:43:37;;;;;;;43.20;22.48;;;;;;;;;;12850842;23;20094;-81
2022/11/04 06:48:37;;;;;;;47.93;21.67;;;;;;;;;;12822662;23;20027;-77
2022/11/04 06:53:38;;;;;;;47.85;21.67;;;;;;;;;;12884752;23;20290;-76
2022/11/04 06:58:39;;;;;;;47.53;20.17;;;;;;;;;;12859005;23;20051;-79
2022/11/04 07:03:39;;;;;;;47.58;21.67;;;;;;;;;;12863405;23;20068;-74
2022/11/04 07:08:40;;;;;;;52.75;21.25;;;;;;;;;;12837215;23;20008;-75
2022/11/04 07:13:40;;;;;;;57.45;21.25;;;;;;;;;;12831223;23;20350;-84
2022/11/04 07:18:40;;;;;;;43.67;19.48;;;;;;;;;;12833769;23;20063;-75
2022/11/04 07:23:41;;;;;;;42.95;19.73;;;;;;;;;;12827839;23;19998;-75
2022/11/04 07:28:41;;;;;;;42.88;20.65;;;;;;;;;;12827162;23;19996;-75
2022/11/04 07:33:41;;;;;;;45.75;21.85;;;;;;;;;;12873865;23;20024;-75
2022/11/04 07:38:42;;;;;;;49.47;24.57;;;;;;;;;;12873993;23;20016;-79
2022/11/04 07:43:42;;;;;;;43.55;20.45;;;;;;;;;;12826289;23;20046;-76
2022/11/04 07:48:42;;;;;;;49.28;22.35;;;;;;;;;;12825353;23;20021;-74
2022/11/04 07:53:43;;;;;;;40.50;19.92;;;;;;;;;;12825980;23;20051;-74
2022/11/04 07:58:43;;;;;;;39.85;20.40;;;;;;;;;;12826487;23;20073;-76
2022/11/04 08:03:44;;;;;;;35.17;19.58;;;;;;;;;;12825853;23;20071;-79
2022/11/04 08:08:44;;;;;;;47.15;17.35;;;;;;;;;;12826526;23;19988;-81
2022/11/04 08:13:45;;;;;;;37.67;17.40;;;;;;;;;;12826221;23;20050;-76
2022/11/04 08:18:47;;;;;;;38.97;17.65;;;;;;;;;;12853566;23;19992;-79
2022/11/04 08:23:50;;;;;;;36.08;17.38;;;;;;;;;;12826108;23;19997;-79
2022/11/04 08:28:50;;;;;;;35.33;18.00;;;;;;;;;;12873253;23;19989;-76
2022/11/04 08:33:51;;;;;;;37.75;18.10;;;;;;;;;;12825185;23;20028;-78
2022/11/04 08:38:52;;;;;;;33.70;18.33;;;;;;;;;;12825764;23;19995;-79
2022/11/04 08:43:54;;;;;;;40.60;17.52;;;;;;;;;;12871929;23;19989;-74
2022/11/04 08:48:54;;;;;;;38.80;18.05;;;;;;;;;;12831038;23;20017;-74
2022/11/04 08:53:55;;;;;;;37.17;18.02;;;;;;;;;;12783776;23;20009;-79
2022/11/04 08:58:57;;;;;;;32.60;18.13;;;;;;;;;;12764395;23;20025;-81
2022/11/04 09:03:57;;;;;;;42.08;19.15;;;;;;;;;;12820654;23;20345;-74
2022/11/04 09:09:02;;;;;;;34.07;16.47;;;;;;;;;;12818627;23;19989;-78
2022/11/04 09:14:03;;;;;;;42.22;17.70;;;;;;;;;;12767034;23;20367;-76
2022/11/04 09:19:03;;;;;;;45.40;17.87;;;;;;;;;;12776756;23;19997;-78
2022/11/04 09:24:03;;;;;;;38.10;17.13;;;;;;;;;;12765173;23;20017;-81
2022/11/04 09:29:05;;;;;;;27.20;14.45;;;;;;;;;;12762512;23;20059;-79
2022/11/04 09:34:05;;;;;;;28.15;14.00;;;;;;;;;;12761713;23;20449;-78
2022/11/04 09:39:06;;;;;;;31.83;13.45;;;;;;;;;;12762732;23;19989;-75
2022/11/04 09:44:06;;;;;;;30.25;12.40;;;;;;;;;;12762155;23;20025;-76
2022/11/04 09:49:09;;;;;;;27.75;13.35;;;;;;;;;;12804642;23;20074;-74
2022/11/04 09:54:21;;;;;;;23.98;11.63;;;;;;;;;;12871187;23;20047;-75
2022/11/04 09:59:28;;;;;;;26.33;11.23;;;;;;;;;;12824054;23;19993;-76
2022/11/04 10:04:40;;;;;;;25.10;11.70;;;;;;;;;;12799070;23;20386;-81
2022/11/04 10:10:04;;;;;;;21.38;9.98;;;;;;;;;;12871108;23;20005;-80
2022/11/04 10:15:16;;;;;;;23.58;10.65;;;;;;;;;;12822738;23;20047;-76
2022/11/04 10:20:20;;;;;;;21.17;10.70;;;;;;;;;;12823575;23;20020;-79
2022/11/04 10:25:22;;;;;;;30.83;11.32;;;;;;;;;;12823823;23;19992;-75
2022/11/04 10:30:23;;;;;;;30.20;11.30;;;;;;;;;;12822956;23;20001;-73
2022/11/04 10:35:27;;;;;;;23.27;12.30;;;;;;;;;;12823399;23;20000;-80
2022/11/04 10:40:30;;;;;;;23.08;11.43;;;;;;;;;;12873765;23;20425;-75
2022/11/04 10:45:36;;;;;;;24.83;11.68;;;;;;;;;;12827452;23;20023;-80
2022/11/04 10:50:43;;;;;;;20.63;11.10;;;;;;;;;;12812664;23;20442;-78
2022/11/04 10:55:43;;;;;;;26.38;10.45;;;;;;;;;;12765197;23;19997;-78
2022/11/04 11:00:43;;;;;;;27.52;11.93;;;;;;;;;;12765501;23;20071;-75
2022/11/04 11:05:44;;;;;;;19.30;9.60;;;;;;;;;;12765064;23;19993;-74
2022/11/04 11:10:50;;;;;;;29.38;11.38;;;;;;;;;;12740275;23;20072;-75
2022/11/04 11:16:02;;;;;;;25.73;10.75;;;;;;;;;;12766325;23;20000;-77
2022/11/04 11:21:02;;;;;;;27.27;10.52;;;;;;;;;;12765162;23;20488;-79
2022/11/04 11:26:04;;;;;;;26.63;11.00;;;;;;;;;;12763854;23;20031;-73
2022/11/04 11:31:15;;;;;;;25.00;10.13;;;;;;;;;;12811637;23;19993;-78
2022/11/04 11:36:23;;;;;;;23.42;11.05;;;;;;;;;;12764979;23;20048;-78
2022/11/04 11:41:30;;;;;;;30.42;11.63;;;;;;;;;;12765637;23;20354;-81
2022/11/04 11:46:31;;;;;;;30.10;11.70;;;;;;;;;;12799460;23;20078;-80
2022/11/04 11:51:33;;;;;;;28.95;11.75;;;;;;;;;;12810062;23;20004;-74
2022/11/04 11:56:42;;;;;;;29.33;11.20;;;;;;;;;;12767074;23;20084;-75
2022/11/04 12:01:49;;;;;;;23.48;11.32;;;;;;;;;;12810513;23;20328;-81
2022/11/04 12:07:02;;;;;;;27.53;10.60;;;;;;;;;;12739895;23;20001;-74
2022/11/04 12:12:06;;;;;;;27.67;11.82;;;;;;;;;;12810460;23;20021;-79
2022/11/04 12:17:12;;;;;;;25.35;11.27;;;;;;;;;;12764010;23;19997;-79
2022/11/04 12:22:27;;;;;;;21.45;10.57;;;;;;;;;;12763573;23;20009;-77
2022/11/04 12:27:38;;;;;;;32.15;11.52;;;;;;;;;;12763674;23;19993;-78
2022/11/04 12:32:55;;;;;;;28.17;12.05;;;;;;;;;;12762793;23;19997;-80
2022/11/04 12:38:14;;;;;;;31.65;12.13;;;;;;;;;;12810473;23;20283;-78
2022/11/04 12:43:14;;;;;;;34.42;11.95;;;;;;;;;;12762633;23;19997;-74
2022/11/04 12:48:34;;;;;;;29.40;11.05;;;;;;;;;;12764061;23;20076;-75
2022/11/04 12:53:40;;;;;;;36.92;11.18;;;;;;;;;;12772393;23;20393;-75
2022/11/04 12:58:40;;;;;;;30.70;12.85;;;;;;;;;;12787171;23;20019;-78
2022/11/04 13:03:46;;;;;;;35.13;12.85;;;;;;;;;;12775391;23;20024;-76
2022/11/04 13:08:51;;;;;;;35.55;11.73;;;;;;;;;;12769005;23;19997;-76
2022/11/04 13:14:00;;;;;;;38.58;12.57;;;;;;;;;;12767317;23;19997;-82
2022/11/04 13:19:01;;;;;;;32.22;11.90;;;;;;;;;;12763427;23;20072;-76
2022/11/04 13:24:03;;;;;;;33.97;11.52;;;;;;;;;;12761635;23;20053;-76
2022/11/04 13:29:12;;;;;;;35.20;13.07;;;;;;;;;;12761436;23;20000;-85
2022/11/04 13:34:18;;;;;;;31.85;10.93;;;;;;;;;;12808430;23;19986;-78
2022/11/04 13:39:28;;;;;;;27.85;11.40;;;;;;;;;;12735912;23;20069;-75
2022/11/04 13:44:33;;;;;;;45.08;11.90;;;;;;;;;;12736244;23;19993;-77
2022/11/04 13:49:35;;;;;;;31.83;11.60;;;;;;;;;;12808459;23;20013;-75
2022/11/04 13:54:41;;;;;;;33.58;12.23;;;;;;;;;;12822279;23;20326;-76
2022/11/04 14:00:02;;;;;;;37.72;13.05;;;;;;;;;;12821986;23;19988;-78
2022/11/04 14:05:21;;;;;;;42.38;12.32;;;;;;;;;;12869905;23;19988;-73
2022/11/04 14:10:42;;;;;;;30.42;11.20;;;;;;;;;;12821757;23;20051;-74
2022/11/04 14:16:01;;;;;;;37.40;11.95;;;;;;;;;;12800311;23;19988;-73
2022/11/04 14:21:12;;;;;;;29.92;11.52;;;;;;;;;;12826197;23;20025;-75
2022/11/04 14:26:13;;;;;;;29.95;12.95;;;;;;;;;;12825567;23;19989;-75
2022/11/04 14:31:32;;;;;;;27.77;10.98;;;;;;;;;;12825351;23;20468;-77
2022/11/04 14:36:34;;;;;;;31.98;11.95;;;;;;;;;;12825970;23;20043;-75
2022/11/04 14:41:38;;;;;;;30.02;10.68;;;;;;;;;;12825883;23;19999;-79
2022/11/04 14:46:43;;;;;;;37.63;12.45;;;;;;;;;;12848046;23;20020;-75
2022/11/04 14:51:43;;;;;;;31.70;13.82;;;;;;;;;;12810724;23;19997;-78
2022/11/04 14:56:45;;;;;;;40.75;12.70;;;;;;;;;;12763059;23;20083;-73
2022/11/04 15:01:45;;;;;;;29.42;12.82;;;;;;;;;;12811149;23;20000;-76
2022/11/04 15:06:56;;;;;;;41.35;14.63;;;;;;;;;;12811055;23;19993;-75
2022/11/04 15:17:26;;;;;;;35.65;12.82;;;;;;;;;;12810013;23;19993;-82
2022/11/04 15:22:28;;;;;;;36.63;15.23;;;;;;;;;;12762737;23;20104;-78
2022/11/04 15:27:28;;;;;;;37.97;12.05;;;;;;;;;;12738308;23;20004;-79
2022/11/04 15:32:29;;;;;;;31.85;13.55;;;;;;;;;;12761732;23;20004;-77
2022/11/04 15:37:29;;;;;;;29.10;13.18;;;;;;;;;;12763444;23;20393;-77
2022/11/04 15:42:38;;;;;;;29.95;12.65;;;;;;;;;;12737387;23;20015;-76
2022/11/04 15:47:38;;;;;;;41.25;14.30;;;;;;;;;;12759715;23;20361;-75
2022/11/04 15:52:45;;;;;;;41.08;14.15;;;;;;;;;;12762410;23;20070;-75
2022/11/04 15:57:46;;;;;;;36.57;13.57;;;;;;;;;;12811052;23;20056;-75
2022/11/04 16:02:54;;;;;;;33.90;11.68;;;;;;;;;;12783440;23;20058;-76
2022/11/04 16:07:58;;;;;;;28.70;13.23;;;;;;;;;;12810084;23;20456;-78
2022/11/04 16:12:59;;;;;;;37.80;13.68;;;;;;;;;;12762951;23;19997;-75
2022/11/04 16:18:00;;;;;;;35.53;13.43;;;;;;;;;;12811023;23;19993;-75
2022/11/04 16:23:03;;;;;;;23.73;11.43;;;;;;;;;;12771464;23;20015;-77
2022/11/04 16:28:03;;;;;;;22.23;11.07;;;;;;;;;;12767480;23;20389;-75
2022/11/04 16:33:16;;;;;;;31.87;11.53;;;;;;;;;;12767708;23;20009;-76
2022/11/04 16:38:16;;;;;;;31.67;11.88;;;;;;;;;;12767012;23;20051;-81
2022/11/04 16:43:18;;;;;;;25.10;12.57;;;;;;;;;;12764035;23;20043;-75
2022/11/04 16:48:20;;;;;;;26.92;12.20;;;;;;;;;;12770961;23;20013;-80
2022/11/04 16:53:21;;;;;;;24.02;12.13;;;;;;;;;;12763419;23;20027;-75
2022/11/04 16:58:21;;;;;;;31.63;11.68;;;;;;;;;;12810934;23;20013;-76
2022/11/04 17:03:21;;;;;;;24.25;12.50;;;;;;;;;;12825492;23;19989;-80
2022/11/04 17:08:25;;;;;;;37.23;15.27;;;;;;;;;;12813275;23;20426;-78
2022/11/04 17:13:26;;;;;;;31.10;13.38;;;;;;;;;;12763348;23;20012;-74
2022/11/04 17:18:28;;;;;;;37.80;13.40;;;;;;;;;;12763500;23;20446;-75
2022/11/04 17:23:28;;;;;;;26.63;12.23;;;;;;;;;;12757038;23;20069;-74
2022/11/04 17:28:30;;;;;;;22.35;12.00;;;;;;;;;;12761279;23;20416;-82
2022/11/04 17:33:30;;;;;;;37.05;12.35;;;;;;;;;;12761128;23;20437;-75
2022/11/04 17:38:30;;;;;;;29.52;13.32;;;;;;;;;;12760310;23;19993;-75
2022/11/04 17:48:49;;;;;;;29.98;14.48;;;;;;;;;;12787471;23;20131;-79
2022/11/04 17:53:50;;;;;;;26.63;12.03;;;;;;;;;;12803227;23;20044;-75
2022/11/04 17:58:50;;;;;;;30.45;13.82;;;;;;;;;;12802370;23;19997;-75
2022/11/04 18:03:53;;;;;;;33.58;14.60;;;;;;;;;;12756607;23;20441;-77
2022/11/04 18:08:54;;;;;;;23.98;12.82;;;;;;;;;;12731770;23;19997;-73
2022/11/04 18:13:54;;;;;;;25.58;12.15;;;;;;;;;;12800218;23;19993;-78
2022/11/04 18:18:56;;;;;;;26.92;12.55;;;;;;;;;;12756039;23;20076;-72
2022/11/04 18:23:56;;;;;;;32.72;12.65;;;;;;;;;;12755380;23;20345;-75
2022/11/04 18:28:57;;;;;;;22.42;11.68;;;;;;;;;;12756798;23;20000;-75
2022/11/04 18:34:00;;;;;;;26.50;11.20;;;;;;;;;;12756657;23;19997;-75
2022/11/04 18:39:01;;;;;;;24.23;10.93;;;;;;;;;;12753308;23;20000;-74
2022/11/04 18:44:01;;;;;;;33.10;15.82;;;;;;;;;;12753075;23;20029;-75
2022/11/04 18:49:04;;;;;;;28.77;12.50;;;;;;;;;;12808121;23;20088;-76
2022/11/04 18:54:06;;;;;;;30.25;12.20;;;;;;;;;;12751756;23;20605;-80
2022/11/04 18:59:08;;;;;;;25.58;10.82;;;;;;;;;;12753590;23;20021;-80
2022/11/04 19:04:08;;;;;;;30.80;11.35;;;;;;;;;;12759726;23;20377;-75
2022/11/04 19:09:11;;;;;;;19.77;9.95;;;;;;;;;;12806398;23;20229;-77
2022/11/04 19:14:15;;;;;;;26.00;11.93;;;;;;;;;;12765878;23;20004;-74
2022/11/04 19:19:16;;;;;;;30.17;10.18;;;;;;;;;;12807140;23;19997;-76
2022/11/04 19:24:17;;;;;;;21.10;10.75;;;;;;;;;;12769687;23;20340;-75
2022/11/04 19:29:18;;;;;;;20.85;10.20;;;;;;;;;;12776447;23;20001;-81
2022/11/04 19:34:18;;;;;;;23.08;10.70;;;;;;;;;;12766705;23;19993;-76
2022/11/04 19:39:18;;;;;;;25.40;12.23;;;;;;;;;;12806805;23;20438;-74
2022/11/04 19:44:19;;;;;;;22.95;12.27;;;;;;;;;;12762789;23;20072;-79
2022/11/04 19:49:19;;;;;;;20.13;10.80;;;;;;;;;;12808944;23;20492;-73
2022/11/04 19:54:20;;;;;;;25.85;11.70;;;;;;;;;;12823624;23;20004;-77
2022/11/04 19:59:20;;;;;;;32.28;13.75;;;;;;;;;;12823298;23;19994;-76
2022/11/04 20:04:22;;;;;;;25.17;14.05;;;;;;;;;;12826102;23;20373;-78
2022/11/04 20:09:25;;;;;;;35.42;16.25;;;;;;;;;;12796626;23;19993;-77
2022/11/04 20:14:26;;;;;;;50.00;17.85;;;;;;;;;;12795794;23;20003;-79
2022/11/04 20:19:28;;;;;;;36.47;14.18;;;;;;;;;;12821727;23;20046;-77
2022/11/04 20:24:29;;;;;;;34.75;16.52;;;;;;;;;;12860525;23;19993;-75
2022/11/04 20:29:30;;;;;;;35.17;15.93;;;;;;;;;;12820764;23;20500;-80
2022/11/04 20:34:32;;;;;;;34.40;15.05;;;;;;;;;;12821435;23;20498;-77
2022/11/04 20:39:32;;;;;;;35.53;16.90;;;;;;;;;;12820815;23;19989;-79
2022/11/04 20:44:33;;;;;;;40.75;15.85;;;;;;;;;;12821270;23;19992;-75
2022/11/04 20:49:33;;;;;;;30.60;16.25;;;;;;;;;;12820438;23;20542;-74
2022/11/04 20:54:33;;;;;;;42.08;17.73;;;;;;;;;;12821207;23;20023;-74
2022/11/04 20:59:34;;;;;;;47.40;18.90;;;;;;;;;;12822189;23;20059;-79
2022/11/04 21:04:37;;;;;;;49.13;21.00;;;;;;;;;;12822061;23;20809;-79
2022/11/04 21:09:37;;;;;;;41.05;19.30;;;;;;;;;;12819723;23;19988;-74
2022/11/04 21:14:38;;;;;;;47.93;19.23;;;;;;;;;;12821715;23;19989;-74
2022/11/04 21:19:38;;;;;;;45.17;20.25;;;;;;;;;;12869231;23;19989;-73
2022/11/04 21:24:39;;;;;;;48.28;20.17;;;;;;;;;;12821417;23;20075;-77
2022/11/04 21:29:39;;;;;;;44.85;22.48;;;;;;;;;;12820835;23;20001;-78
2022/11/04 21:34:40;;;;;;;43.83;20.23;;;;;;;;;;12797081;23;20000;-80
2022/11/04 21:39:41;;;;;;;51.08;23.13;;;;;;;;;;12869424;23;20436;-80
2022/11/04 21:44:42;;;;;;;44.90;19.98;;;;;;;;;;12866371;23;20000;-76
2022/11/04 21:49:42;;;;;;;36.60;19.20;;;;;;;;;;12853677;23;20020;-75
2022/11/04 21:54:42;;;;;;;51.10;22.75;;;;;;;;;;12869956;23;20031;-77
2022/11/04 21:59:42;;;;;;;36.88;20.92;;;;;;;;;;12854649;23;19989;-80
2022/11/04 22:04:43;;;;;;;45.50;21.65;;;;;;;;;;12826545;23;19989;-79
2022/11/04 22:09:43;;;;;;;49.17;21.67;;;;;;;;;;12822649;23;20061;-81
2022/11/04 22:14:45;;;;;;;43.92;19.80;;;;;;;;;;12820328;23;20017;-81
2022/11/04 22:19:45;;;;;;;48.35;19.67;;;;;;;;;;12821786;23;19999;-82
2022/11/04 22:25:01;;;;;;;50.83;22.38;;;;;;;;;;12823963;23;19993;-79
2022/11/04 22:30:03;;;;;;;45.92;21.85;;;;;;;;;;12823379;23;20001;-76
2022/11/04 22:35:04;;;;;;;39.50;20.85;;;;;;;;;;12823468;23;20513;-77
2022/11/04 22:40:05;;;;;;;46.70;22.75;;;;;;;;;;12825567;23;20000;-75
2022/11/04 22:45:06;;;;;;;37.70;21.08;;;;;;;;;;12825497;23;19997;-79
2022/11/04 22:50:06;;;;;;;49.38;21.35;;;;;;;;;;12825357;23;20017;-74
2022/11/04 22:55:07;;;;;;;52.35;22.45;;;;;;;;;;12825722;23;20012;-73
2022/11/04 23:00:08;;;;;;;48.97;21.10;;;;;;;;;;12871279;23;20003;-79
2022/11/04 23:05:08;;;;;;;47.75;21.52;;;;;;;;;;12825050;23;20127;-80
2022/11/04 23:25:04;;;;;;;48.50;21.52;;;;;;;;;;12871915;23;19992;-73
2022/11/04 23:26:06;;;;;;;45.35;22.48;;;;;;;;;;12851050;23;20641;-78
2022/11/04 23:31:08;;;;;;;53.17;24.20;;;;;;;;;;12823364;23;20000;-76
